Time;durP1;ratioP1;P1;durP2;ratioP2;P2;SDS_P1;SDS_P2;PMS_P1;PMS_P2;Temp;Humidity;BMP_temperature;BMP_pressure;BME280_temperature;BME280_humidity;BME280_pressure;Samples;Min_cycle;Max_cycle;Signal;HPM_P1;HPM_P2
2024/01/04 00:01:22;;;;;;;14.57;8.67;;;7.70;99.90;;;;;;6150315;23;20619;-88
2024/01/04 00:03:51;;;;;;;12.80;9.13;;;7.80;99.90;;;;;;6147291;23;20168;-88
2024/01/04 00:06:20;;;;;;;12.03;8.63;;;7.80;99.90;;;;;;6147571;23;20176;-87
2024/01/04 00:08:49;;;;;;;11.57;8.00;;;7.70;99.90;;;;;;6147092;23;20179;-87
2024/01/04 00:11:20;;;;;;;12.43;8.17;;;7.80;99.90;;;;;;6151337;23;20227;-87
2024/01/04 00:13:49;;;;;;;10.60;8.00;;;7.80;99.90;;;;;;6149307;23;20183;-87
2024/01/04 00:16:20;;;;;;;13.60;8.27;;;7.80;99.90;;;;;;6150722;23;20168;-86
2024/01/04 00:18:49;;;;;;;11.50;7.83;;;7.80;99.90;;;;;;6152645;23;20626;-87
2024/01/04 00:21:19;;;;;;;13.87;7.67;;;8.00;99.90;;;;;;6151246;23;20199;-84
2024/01/04 00:23:48;;;;;;;10.47;7.33;;;7.80;99.90;;;;;;6155673;23;20191;-86
2024/01/04 00:26:18;;;;;;;9.90;7.30;;;7.80;99.90;;;;;;6169278;23;20466;-85
2024/01/04 00:28:49;;;;;;;10.57;7.73;;;7.80;99.90;;;;;;6165958;23;20332;-88
2024/01/04 00:31:18;;;;;;;9.17;6.90;;;7.80;99.90;;;;;;6163854;23;20176;-85
2024/01/04 00:33:50;;;;;;;10.43;6.70;;;7.70;99.90;;;;;;6126187;23;20211;-87
2024/01/04 00:36:19;;;;;;;7.87;6.17;;;7.80;99.90;;;;;;6163057;23;20175;-89
2024/01/04 00:38:49;;;;;;;10.77;6.57;;;7.90;99.90;;;;;;6172298;23;20148;-89
2024/01/04 00:41:18;;;;;;;8.73;6.00;;;7.80;99.90;;;;;;6173423;23;20168;-89
2024/01/04 00:43:47;;;;;;;7.83;5.90;;;8.00;99.90;;;;;;6140717;23;20186;-87
2024/01/04 00:46:17;;;;;;;6.83;5.57;;;8.00;99.90;;;;;;6172578;23;20174;-86
2024/01/04 00:48:46;;;;;;;8.50;5.90;;;7.80;99.90;;;;;;6175899;23;20413;-83
2024/01/04 00:51:15;;;;;;;7.03;5.60;;;7.80;99.90;;;;;;6173901;23;20167;-90
2024/01/04 00:53:44;;;;;;;10.23;5.70;;;7.80;99.90;;;;;;6139571;23;20237;-86
2024/01/04 00:56:13;;;;;;;6.37;5.40;;;7.80;99.90;;;;;;6174176;23;20199;-88
2024/01/04 00:58:42;;;;;;;8.80;5.30;;;7.90;99.90;;;;;;6175514;23;20151;-86
2024/01/04 01:01:11;;;;;;;7.50;5.50;;;7.80;99.90;;;;;;6174899;23;20355;-87
2024/01/04 01:03:48;;;;;;;8.53;6.30;;;7.80;99.90;;;;;;6175725;23;20247;-86
2024/01/04 01:06:17;;;;;;;9.03;5.30;;;7.80;99.90;;;;;;6174661;23;20175;-85
2024/01/04 01:08:46;;;;;;;9.17;6.23;;;7.80;99.90;;;;;;6175904;23;20235;-88
2024/01/04 01:11:15;;;;;;;10.53;6.57;;;7.90;99.90;;;;;;6171354;23;20191;-85
2024/01/04 01:13:44;;;;;;;6.90;5.30;;;7.80;99.90;;;;;;6175749;23;20148;-85
2024/01/04 01:16:13;;;;;;;9.37;5.73;;;7.80;99.90;;;;;;6173869;23;20371;-86
2024/01/04 01:18:50;;;;;;;7.13;5.77;;;7.80;99.90;;;;;;6139664;23;20164;-86
2024/01/04 01:21:19;;;;;;;9.53;6.03;;;7.80;99.90;;;;;;6165445;23;20183;-87
2024/01/04 01:23:50;;;;;;;9.30;6.10;;;7.80;99.90;;;;;;6168605;23;20203;-85
2024/01/04 01:26:18;;;;;;;8.03;6.37;;;7.80;99.90;;;;;;6163873;23;20218;-85
2024/01/04 01:28:48;;;;;;;6.40;5.43;;;8.00;99.90;;;;;;6132053;23;20716;-86
2024/01/04 01:31:18;;;;;;;7.73;5.40;;;7.70;99.90;;;;;;6169602;23;20234;-87
2024/01/04 01:33:53;;;;;;;7.10;5.80;;;8.00;99.90;;;;;;6130938;23;20180;-86
2024/01/04 01:36:23;;;;;;;8.53;6.33;;;7.70;99.90;;;;;;6165572;23;20477;-86
2024/01/04 01:38:55;;;;;;;7.90;5.47;;;7.80;99.90;;;;;;6167167;23;20160;-87
2024/01/04 01:41:24;;;;;;;8.30;6.07;;;7.70;99.90;;;;;;6161461;23;20191;-88
2024/01/04 01:43:54;;;;;;;8.57;6.27;;;7.70;99.90;;;;;;6154240;23;20467;-87
2024/01/04 01:46:23;;;;;;;8.10;6.13;;;7.70;99.90;;;;;;6114896;23;20195;-87
2024/01/04 01:48:53;;;;;;;8.50;6.00;;;7.70;99.90;;;;;;6158252;23;20180;-86
2024/01/04 01:51:22;;;;;;;8.07;5.90;;;7.80;99.90;;;;;;6154083;23;20207;-86
2024/01/04 01:53:51;;;;;;;8.50;6.00;;;7.70;99.90;;;;;;6153822;23;20179;-89
2024/01/04 01:56:21;;;;;;;9.77;6.50;;;7.70;99.90;;;;;;6153627;23;20324;-86
2024/01/04 01:58:52;;;;;;;7.37;6.00;;;7.60;99.90;;;;;;6155204;23;20225;-89
2024/01/04 02:01:24;;;;;;;7.27;6.57;;;7.60;99.90;;;;;;6150594;23;20180;-87
2024/01/04 02:03:56;;;;;;;8.10;6.17;;;7.70;99.90;;;;;;6149163;23;20195;-87
2024/01/04 02:06:27;;;;;;;10.23;6.37;;;7.70;99.90;;;;;;6149643;23;20183;-89
2024/01/04 02:08:56;;;;;;;9.47;6.13;;;7.80;99.90;;;;;;6150376;23;20163;-88
2024/01/04 02:11:26;;;;;;;8.30;5.97;;;7.80;99.90;;;;;;6151612;23;20199;-88
2024/01/04 02:13:56;;;;;;;9.33;5.90;;;7.90;99.90;;;;;;6163263;23;20174;-87
2024/01/04 02:16:24;;;;;;;8.23;5.47;;;7.70;99.90;;;;;;6163178;23;20277;-85
2024/01/04 02:18:55;;;;;;;5.70;4.87;;;7.80;99.90;;;;;;6153856;23;20577;-85
2024/01/04 02:21:24;;;;;;;7.93;5.10;;;7.80;99.90;;;;;;6149019;23;20625;-84
2024/01/04 02:23:55;;;;;;;6.20;5.60;;;7.80;99.90;;;;;;6114697;23;20622;-84
2024/01/04 02:26:23;;;;;;;7.70;4.77;;;7.90;99.90;;;;;;6151159;23;20712;-85
2024/01/04 02:28:53;;;;;;;5.83;5.07;;;7.80;99.90;;;;;;6149266;23;20644;-87
2024/01/04 02:31:21;;;;;;;8.17;5.00;;;7.80;99.90;;;;;;6150486;23;20588;-86
2024/01/04 02:33:51;;;;;;;6.67;4.60;;;7.80;99.90;;;;;;6151714;23;20597;-85
2024/01/04 02:36:20;;;;;;;6.73;4.63;;;7.80;99.90;;;;;;6140112;23;20222;-86
2024/01/04 02:38:49;;;;;;;5.67;4.50;;;7.70;99.90;;;;;;6114402;23;20183;-87
2024/01/04 02:41:22;;;;;;;7.87;4.97;;;7.70;99.90;;;;;;6162870;23;20206;-87
2024/01/04 02:43:51;;;;;;;6.97;4.90;;;7.80;99.90;;;;;;6151201;23;20264;-87
2024/01/04 02:46:20;;;;;;;6.77;4.73;;;7.70;99.90;;;;;;6145102;23;20172;-85
2024/01/04 02:48:49;;;;;;;6.70;5.57;;;7.70;99.90;;;;;;6148005;23;20207;-84
2024/01/04 02:51:18;;;;;;;7.87;5.30;;;7.70;99.90;;;;;;6158016;23;20255;-89
2024/01/04 02:53:51;;;;;;;5.67;4.90;;;7.70;99.90;;;;;;6160590;23;20211;-86
2024/01/04 02:56:22;;;;;;;7.47;5.20;;;7.70;99.90;;;;;;6168712;23;20166;-86
2024/01/04 02:58:51;;;;;;;8.27;5.53;;;7.60;99.90;;;;;;6146358;23;20160;-87
2024/01/04 03:01:23;;;;;;;7.93;4.97;;;7.60;99.90;;;;;;6144488;23;20178;-85
2024/01/04 03:03:55;;;;;;;7.37;4.80;;;7.60;99.90;;;;;;6147049;23;20187;-88
2024/01/04 03:06:24;;;;;;;7.00;4.93;;;7.60;99.90;;;;;;6143961;23;20253;-88
2024/01/04 03:08:53;;;;;;;7.53;5.30;;;7.40;99.90;;;;;;6145209;23;20164;-86
2024/01/04 03:11:26;;;;;;;8.07;5.30;;;7.50;99.90;;;;;;6143980;23;20702;-88
2024/01/04 03:13:55;;;;;;;9.13;5.00;;;7.50;99.90;;;;;;6107945;23;20187;-86
2024/01/04 03:16:24;;;;;;;9.27;5.13;;;7.50;99.90;;;;;;6143082;23;20168;-86
2024/01/04 03:18:54;;;;;;;11.47;5.47;;;7.50;99.90;;;;;;6147400;23;20511;-88
2024/01/04 03:21:22;;;;;;;7.50;4.97;;;7.60;99.90;;;;;;6147972;23;20179;-85
2024/01/04 03:23:52;;;;;;;6.87;5.20;;;7.50;99.90;;;;;;6146014;23;20184;-87
2024/01/04 03:26:21;;;;;;;7.90;4.97;;;7.50;99.90;;;;;;6107938;23;20594;-87
2024/01/04 03:28:51;;;;;;;5.97;4.90;;;7.50;99.90;;;;;;6113404;23;20373;-88
2024/01/04 03:31:20;;;;;;;8.87;5.43;;;7.50;99.90;;;;;;6157933;23;20175;-89
2024/01/04 03:33:49;;;;;;;7.13;4.60;;;7.40;99.90;;;;;;6156850;23;20619;-88
2024/01/04 03:36:19;;;;;;;6.13;5.30;;;7.50;99.90;;;;;;6169944;23;20198;-86
2024/01/04 03:38:48;;;;;;;6.63;4.47;;;7.40;99.90;;;;;;6162986;23;20635;-86
2024/01/04 03:41:18;;;;;;;7.60;4.90;;;7.30;99.90;;;;;;6126135;23;20247;-86
2024/01/04 03:43:48;;;;;;;8.13;4.87;;;7.30;99.90;;;;;;6165492;23;20194;-88
2024/01/04 03:46:18;;;;;;;5.83;4.50;;;7.30;99.90;;;;;;6150694;23;20704;-88
2024/01/04 03:48:48;;;;;;;9.03;4.53;;;7.40;99.90;;;;;;6159792;23;20311;-86
2024/01/04 03:51:17;;;;;;;8.23;4.40;;;7.20;99.90;;;;;;6158615;23;20183;-89
2024/01/04 03:53:46;;;;;;;8.50;4.83;;;7.20;99.90;;;;;;6148005;23;20257;-87
2024/01/04 03:56:15;;;;;;;7.17;4.53;;;7.20;99.90;;;;;;6112524;23;20603;-87
2024/01/04 03:58:44;;;;;;;6.43;4.30;;;7.20;99.90;;;;;;6148243;23;20954;-85
2024/01/04 04:01:14;;;;;;;5.17;4.30;;;7.20;99.90;;;;;;6149084;23;20160;-87
2024/01/04 04:03:45;;;;;;;9.20;4.47;;;7.40;99.90;;;;;;6160158;23;20287;-85
2024/01/04 04:06:14;;;;;;;5.33;4.00;;;7.30;99.90;;;;;;6165610;23;20172;-87
2024/01/04 04:08:43;;;;;;;6.70;4.73;;;7.30;99.90;;;;;;6165734;23;20377;-88
2024/01/04 04:11:19;;;;;;;5.93;4.30;;;7.40;99.90;;;;;;6165852;23;20574;-87
2024/01/04 04:13:48;;;;;;;7.37;4.37;;;7.40;99.90;;;;;;6162156;23;20167;-87
2024/01/04 04:16:17;;;;;;;5.50;4.30;;;7.40;99.90;;;;;;6163555;23;20175;-86
2024/01/04 04:18:48;;;;;;;7.23;4.40;;;7.40;99.90;;;;;;6174544;23;20228;-88
2024/01/04 04:21:20;;;;;;;4.87;3.70;;;7.40;99.90;;;;;;6177695;23;20171;-85
2024/01/04 04:23:50;;;;;;;6.27;4.63;;;7.20;99.90;;;;;;6174845;23;20179;-89
2024/01/04 04:26:20;;;;;;;7.23;4.73;;;7.30;99.90;;;;;;6176196;23;20172;-85
2024/01/04 04:28:50;;;;;;;7.00;3.87;;;7.30;99.90;;;;;;6175156;23;20219;-89
2024/01/04 04:31:20;;;;;;;4.90;4.37;;;7.20;99.90;;;;;;6171078;23;20160;-85
2024/01/04 04:33:50;;;;;;;6.57;4.70;;;7.20;99.90;;;;;;6159133;23;20510;-86
2024/01/04 04:36:19;;;;;;;5.33;4.23;;;7.20;99.90;;;;;;6170595;23;20167;-88
2024/01/04 04:38:49;;;;;;;5.37;4.30;;;7.20;99.90;;;;;;6160897;23;20175;-85
2024/01/04 04:41:19;;;;;;;7.63;5.47;;;7.20;99.90;;;;;;6165871;23;20168;-84
2024/01/04 04:43:49;;;;;;;5.77;4.50;;;7.20;99.90;;;;;;6164716;23;20398;-87
2024/01/04 04:46:18;;;;;;;5.60;4.50;;;7.20;99.90;;;;;;6163609;23;20305;-84
2024/01/04 04:48:48;;;;;;;7.90;5.03;;;7.20;99.90;;;;;;6161238;23;20190;-85
2024/01/04 04:51:20;;;;;;;5.83;4.97;;;7.10;99.90;;;;;;6156663;23;20187;-86
2024/01/04 04:53:50;;;;;;;7.60;5.40;;;7.10;99.90;;;;;;6146727;23;20226;-87
2024/01/04 04:56:18;;;;;;;6.30;4.77;;;7.10;99.90;;;;;;6144823;23;20180;-85
2024/01/04 04:58:48;;;;;;;7.90;5.50;;;7.10;99.90;;;;;;6144239;23;20206;-87
2024/01/04 05:01:18;;;;;;;7.57;5.13;;;7.10;99.90;;;;;;6147050;23;20164;-87
2024/01/04 05:03:47;;;;;;;6.70;4.83;;;7.00;99.90;;;;;;6144541;23;20207;-86
2024/01/04 05:06:22;;;;;;;7.90;4.87;;;6.90;99.90;;;;;;6144529;23;20247;-87
2024/01/04 05:08:50;;;;;;;9.30;5.90;;;6.90;99.90;;;;;;6144735;23;20187;-88
2024/01/04 05:11:19;;;;;;;8.43;5.67;;;6.80;99.90;;;;;;6151739;23;20167;-86
2024/01/04 05:13:49;;;;;;;8.97;6.13;;;6.90;99.90;;;;;;6147451;23;20164;-86
2024/01/04 05:16:19;;;;;;;7.40;5.40;;;6.90;99.90;;;;;;6112426;23;20513;-85
2024/01/04 05:18:49;;;;;;;8.17;6.00;;;6.90;99.90;;;;;;6149711;23;20168;-86
2024/01/04 05:21:19;;;;;;;10.73;5.87;;;6.90;99.90;;;;;;6160233;23;20182;-85
2024/01/04 05:23:49;;;;;;;8.50;6.47;;;6.90;99.90;;;;;;6148885;23;20285;-88
2024/01/04 05:26:24;;;;;;;8.83;6.27;;;7.00;99.90;;;;;;6144049;23;20175;-89
2024/01/04 05:28:53;;;;;;;9.07;6.20;;;7.00;99.90;;;;;;6147121;23;20244;-86
2024/01/04 05:31:23;;;;;;;8.10;6.27;;;6.90;99.90;;;;;;6145021;23;20822;-88
2024/01/04 05:33:52;;;;;;;8.47;5.77;;;7.00;99.90;;;;;;6142598;23;20530;-88
2024/01/04 05:36:23;;;;;;;8.83;6.47;;;7.00;99.90;;;;;;6145976;23;20164;-88
2024/01/04 05:38:52;;;;;;;10.03;7.33;;;7.00;99.90;;;;;;6146834;23;20175;-85
2024/01/04 05:41:21;;;;;;;10.00;6.27;;;7.10;99.90;;;;;;6146227;23;20244;-85
2024/01/04 05:43:50;;;;;;;6.97;5.73;;;7.10;99.90;;;;;;6109379;23;20183;-88
2024/01/04 05:46:18;;;;;;;9.27;6.53;;;7.10;99.90;;;;;;6162642;23;20300;-85
2024/01/04 05:48:48;;;;;;;12.30;6.77;;;7.10;99.90;;;;;;6165171;23;20168;-88
2024/01/04 05:51:17;;;;;;;8.83;6.80;;;7.10;99.90;;;;;;6164042;23;20184;-86
2024/01/04 05:53:48;;;;;;;7.20;6.43;;;7.10;99.90;;;;;;6140330;23;20199;-86
2024/01/04 05:56:17;;;;;;;9.30;6.47;;;7.10;99.90;;;;;;6108095;23;20234;-87
2024/01/04 05:58:46;;;;;;;9.50;7.00;;;7.10;99.90;;;;;;6138470;23;20481;-83
2024/01/04 06:01:16;;;;;;;9.87;7.13;;;7.10;99.90;;;;;;6130660;23;20183;-83
2024/01/04 06:03:45;;;;;;;10.10;6.63;;;7.20;99.90;;;;;;6094326;23;20185;-82
2024/01/04 06:06:15;;;;;;;11.00;6.73;;;7.10;99.90;;;;;;6132526;23;20535;-81
2024/01/04 06:08:44;;;;;;;8.93;6.83;;;7.10;99.90;;;;;;6132479;23;20725;-81
2024/01/04 06:11:13;;;;;;;6.97;6.23;;;7.10;99.90;;;;;;6143422;23;20179;-79
2024/01/04 06:13:42;;;;;;;9.50;6.70;;;7.10;99.90;;;;;;6134589;23;20164;-81
2024/01/04 06:16:11;;;;;;;14.53;6.90;;;7.20;99.90;;;;;;6133870;23;20500;-82
2024/01/04 06:18:39;;;;;;;9.23;6.10;;;7.10;99.90;;;;;;6146725;23;20187;-81
2024/01/04 06:21:08;;;;;;;11.37;6.97;;;7.10;99.90;;;;;;6128554;23;20239;-80
2024/01/04 06:23:36;;;;;;;7.07;6.17;;;7.10;99.90;;;;;;6135164;23;20234;-80
2024/01/04 06:26:05;;;;;;;8.97;6.40;;;7.10;99.90;;;;;;6129644;23;20254;-79
2024/01/04 06:28:37;;;;;;;10.70;7.20;;;7.10;99.90;;;;;;6120788;23;20194;-80
2024/01/04 06:31:06;;;;;;;8.10;6.37;;;7.00;99.90;;;;;;6124264;23;20495;-81
2024/01/04 06:33:35;;;;;;;9.40;6.30;;;7.00;99.90;;;;;;6121888;23;20890;-80
2024/01/04 06:36:04;;;;;;;10.77;6.30;;;6.90;99.90;;;;;;6121443;23;20601;-82
2024/01/04 06:38:35;;;;;;;9.37;6.40;;;7.00;99.90;;;;;;6114613;23;20187;-81
2024/01/04 06:41:04;;;;;;;10.50;6.73;;;7.20;99.90;;;;;;6121887;23;20172;-84
2024/01/04 06:43:33;;;;;;;8.37;6.50;;;7.00;99.90;;;;;;6120790;23;20416;-83
2024/01/04 06:46:03;;;;;;;8.23;6.37;;;7.00;99.90;;;;;;6112988;23;20438;-79
2024/01/04 06:48:32;;;;;;;8.97;6.60;;;7.00;99.90;;;;;;6115907;23;20194;-82
2024/01/04 06:51:01;;;;;;;10.07;7.23;;;7.00;99.90;;;;;;6115421;23;20314;-83
2024/01/04 06:53:29;;;;;;;10.23;6.50;;;7.00;99.90;;;;;;6119386;23;20183;-82
2024/01/04 06:55:58;;;;;;;10.17;6.87;;;7.10;99.90;;;;;;6117503;23;20614;-82
2024/01/04 06:58:27;;;;;;;7.97;7.03;;;7.10;99.90;;;;;;6115995;23;20171;-80
2024/01/04 07:00:56;;;;;;;9.97;6.90;;;7.10;99.90;;;;;;6107705;23;20202;-81
2024/01/04 07:03:26;;;;;;;8.80;6.93;;;7.10;99.90;;;;;;6112374;23;20168;-81
2024/01/04 07:05:55;;;;;;;12.10;7.60;;;7.20;99.90;;;;;;6119319;23;20191;-85
2024/01/04 07:08:24;;;;;;;10.43;6.77;;;7.20;99.90;;;;;;6139349;23;20592;-81
2024/01/04 07:10:52;;;;;;;10.77;6.67;;;7.20;99.90;;;;;;6107241;23;20254;-80
2024/01/04 07:13:22;;;;;;;10.53;7.37;;;7.20;99.90;;;;;;6112692;23;20441;-79
2024/01/04 07:15:50;;;;;;;10.30;7.47;;;7.30;99.90;;;;;;6130303;23;20560;-83
2024/01/04 07:18:18;;;;;;;9.43;6.77;;;7.30;99.90;;;;;;6129937;23;20170;-81
2024/01/04 07:20:49;;;;;;;12.37;7.43;;;7.30;99.90;;;;;;6105947;23;20199;-82
2024/01/04 07:23:19;;;;;;;9.47;7.33;;;7.40;99.90;;;;;;6104615;23;20286;-80
2024/01/04 07:25:48;;;;;;;11.67;8.00;;;7.40;99.90;;;;;;6101978;23;20400;-82
2024/01/04 07:28:16;;;;;;;9.00;6.83;;;7.50;99.90;;;;;;6085637;23;20164;-80
2024/01/04 07:30:46;;;;;;;11.57;7.40;;;7.40;99.90;;;;;;6105958;23;20716;-82
2024/01/04 07:33:15;;;;;;;11.03;7.50;;;7.30;99.90;;;;;;6100820;23;20171;-80
2024/01/04 07:35:43;;;;;;;10.33;7.53;;;7.40;99.90;;;;;;6125693;23;20665;-80
2024/01/04 07:38:14;;;;;;;10.03;6.70;;;7.40;99.90;;;;;;6127555;23;20183;-81
2024/01/04 07:40:42;;;;;;;11.07;7.17;;;7.40;99.90;;;;;;6068857;23;20404;-80
2024/01/04 07:43:14;;;;;;;10.40;7.57;;;7.50;99.90;;;;;;6082467;23;20169;-79
2024/01/04 07:45:43;;;;;;;8.87;7.33;;;7.40;99.90;;;;;;6073138;23;20290;-81
2024/01/04 07:48:12;;;;;;;10.67;7.30;;;7.50;99.90;;;;;;6075164;23;20164;-82
2024/01/04 07:50:42;;;;;;;12.13;7.17;;;7.40;99.90;;;;;;6081246;23;20885;-80
2024/01/04 07:53:10;;;;;;;12.10;7.60;;;7.40;99.90;;;;;;6055730;23;20570;-80
2024/01/04 07:55:40;;;;;;;10.63;8.23;;;7.40;99.90;;;;;;6082081;23;20726;-80
2024/01/04 07:58:09;;;;;;;10.13;7.53;;;7.50;99.90;;;;;;6071444;23;20544;-82
2024/01/04 08:00:37;;;;;;;12.07;8.43;;;7.50;99.90;;;;;;6076477;23;20187;-80
2024/01/04 08:03:06;;;;;;;10.63;7.10;;;7.50;99.90;;;;;;6090047;23;20397;-80
2024/01/04 08:05:34;;;;;;;9.47;7.27;;;7.50;99.90;;;;;;6104556;23;20215;-79
2024/01/04 08:08:04;;;;;;;10.80;8.23;;;7.60;99.90;;;;;;6103369;23;20180;-80
2024/01/04 08:10:32;;;;;;;11.13;8.20;;;7.60;99.90;;;;;;6089531;23;20169;-80
2024/01/04 08:13:02;;;;;;;10.03;7.83;;;7.60;99.90;;;;;;6082460;23;20171;-80
2024/01/04 08:15:33;;;;;;;10.37;7.93;;;7.60;99.90;;;;;;6071776;23;20180;-79
2024/01/04 08:18:02;;;;;;;13.07;7.93;;;7.60;99.90;;;;;;6077964;23;20504;-80
2024/01/04 08:20:34;;;;;;;9.27;7.73;;;7.60;99.90;;;;;;6070739;23;21208;-80
2024/01/04 08:23:04;;;;;;;9.13;7.57;;;7.70;99.90;;;;;;6067918;23;20546;-80
2024/01/04 08:25:32;;;;;;;9.10;7.47;;;7.70;99.90;;;;;;6056953;23;20447;-81
2024/01/04 08:28:02;;;;;;;10.87;7.83;;;7.70;99.90;;;;;;6045451;23;20887;-81
2024/01/04 08:30:31;;;;;;;9.13;7.63;;;7.70;99.90;;;;;;6062360;23;20885;-82
2024/01/04 08:32:59;;;;;;;8.80;7.63;;;7.70;99.90;;;;;;6067862;23;20733;-83
2024/01/04 08:35:28;;;;;;;11.10;7.60;;;7.70;99.90;;;;;;6065569;23;21127;-79
2024/01/04 08:37:57;;;;;;;9.70;7.50;;;7.70;99.90;;;;;;6073698;23;20176;-81
2024/01/04 08:40:27;;;;;;;8.93;7.37;;;8.00;99.90;;;;;;6079226;23;20350;-80
2024/01/04 08:42:56;;;;;;;9.07;7.33;;;7.80;99.90;;;;;;6067968;23;20710;-80
2024/01/04 08:45:26;;;;;;;8.70;7.00;;;7.80;99.90;;;;;;6085554;23;20179;-81
2024/01/04 08:47:55;;;;;;;9.20;6.90;;;7.80;99.90;;;;;;6057812;23;20227;-81
2024/01/04 08:50:23;;;;;;;8.97;7.50;;;7.80;99.90;;;;;;6097568;23;20433;-80
2024/01/04 08:52:52;;;;;;;7.87;7.00;;;7.90;99.90;;;;;;6080368;23;20268;-80
2024/01/04 08:55:21;;;;;;;9.60;6.67;;;7.90;99.90;;;;;;6077997;23;20482;-81
2024/01/04 08:57:49;;;;;;;11.90;7.20;;;8.00;99.90;;;;;;6075010;23;20183;-80
2024/01/04 09:00:18;;;;;;;8.20;7.33;;;8.00;99.90;;;;;;6070394;23;20199;-79
2024/01/04 09:02:49;;;;;;;8.60;7.20;;;8.10;99.90;;;;;;6100295;23;20452;-79
2024/01/04 09:05:17;;;;;;;8.83;7.33;;;8.10;99.90;;;;;;6102811;23;20164;-79
2024/01/04 09:07:46;;;;;;;10.00;7.97;;;8.10;99.90;;;;;;6092950;23;21044;-80
2024/01/04 09:10:15;;;;;;;8.60;7.70;;;8.10;99.90;;;;;;6106503;23;20729;-80
2024/01/04 09:12:43;;;;;;;9.03;7.37;;;8.10;99.90;;;;;;6104829;23;20533;-81
2024/01/04 09:15:14;;;;;;;9.23;7.17;;;8.20;99.90;;;;;;6099504;23;20206;-80
2024/01/04 09:17:43;;;;;;;9.07;7.33;;;8.20;99.90;;;;;;6105660;23;20330;-80
2024/01/04 09:20:14;;;;;;;9.77;7.40;;;8.20;99.90;;;;;;6112218;23;20180;-79
2024/01/04 09:22:43;;;;;;;7.50;6.70;;;8.20;99.90;;;;;;6095104;23;20184;-80
2024/01/04 09:25:12;;;;;;;8.73;7.83;;;8.20;99.90;;;;;;6095743;23;20176;-80
2024/01/04 09:27:41;;;;;;;8.13;7.20;;;8.10;99.90;;;;;;6086619;23;20445;-81
2024/01/04 09:30:10;;;;;;;8.77;6.73;;;8.10;99.90;;;;;;6098987;23;20998;-80
2024/01/04 09:32:39;;;;;;;9.53;7.50;;;8.10;99.90;;;;;;6105204;23;20283;-81
2024/01/04 09:35:08;;;;;;;9.10;7.50;;;8.10;99.90;;;;;;6103881;23;20176;-79
2024/01/04 09:37:38;;;;;;;8.77;6.63;;;8.10;99.90;;;;;;6101603;23;20160;-80
2024/01/04 09:40:08;;;;;;;6.23;5.63;;;8.10;99.90;;;;;;6099211;23;20180;-83
2024/01/04 09:42:40;;;;;;;6.97;6.20;;;8.20;99.90;;;;;;6100115;23;20196;-82
2024/01/04 09:45:12;;;;;;;9.07;6.60;;;8.20;99.90;;;;;;6090505;23;20164;-80
2024/01/04 09:47:41;;;;;;;9.53;6.87;;;8.20;99.90;;;;;;6027855;23;20207;-83
2024/01/04 09:50:11;;;;;;;8.07;6.90;;;8.20;99.90;;;;;;6067664;23;20306;-82
2024/01/04 09:52:44;;;;;;;8.47;6.70;;;8.20;99.90;;;;;;6072804;23;20741;-79
2024/01/04 09:55:13;;;;;;;8.10;7.27;;;8.30;99.90;;;;;;6064532;23;20187;-82
2024/01/04 09:57:42;;;;;;;9.30;6.80;;;8.30;99.90;;;;;;6076244;23;20517;-82
2024/01/04 10:00:12;;;;;;;7.37;6.63;;;8.30;99.90;;;;;;6071888;23;20576;-81
2024/01/04 10:02:43;;;;;;;10.83;7.37;;;8.40;99.90;;;;;;6072363;23;20333;-82
2024/01/04 10:05:15;;;;;;;7.53;6.80;;;8.40;99.90;;;;;;6072103;23;20183;-79
2024/01/04 10:07:57;;;;;;;7.70;6.70;;;8.50;99.90;;;;;;6075130;23;20224;-81
2024/01/04 10:10:31;;;;;;;6.90;6.20;;;8.50;99.90;;;;;;6072384;23;20172;-79
2024/01/04 10:13:02;;;;;;;6.63;5.97;;;8.60;99.90;;;;;;6074764;23;20506;-81
2024/01/04 10:15:31;;;;;;;7.13;5.97;;;8.80;99.90;;;;;;6064553;23;20181;-81
2024/01/04 10:18:00;;;;;;;8.10;6.10;;;8.60;99.90;;;;;;6072038;23;20546;-79
2024/01/04 10:20:29;;;;;;;7.30;6.50;;;8.70;99.90;;;;;;6076457;23;20172;-79
2024/01/04 10:22:59;;;;;;;6.60;5.13;;;8.70;99.90;;;;;;6037786;23;20895;-80
2024/01/04 10:25:28;;;;;;;6.10;5.50;;;8.70;99.90;;;;;;6066843;23;20310;-79
2024/01/04 10:27:58;;;;;;;6.00;5.47;;;8.60;99.90;;;;;;6067273;23;20689;-80
2024/01/04 10:30:27;;;;;;;8.53;6.17;;;8.50;99.90;;;;;;6061158;23;20252;-82
2024/01/04 10:32:56;;;;;;;6.80;6.00;;;8.50;99.90;;;;;;6069623;23;20180;-81
2024/01/04 10:35:29;;;;;;;6.83;5.47;;;8.50;99.90;;;;;;6080054;23;20266;-82
2024/01/04 10:38:01;;;;;;;6.30;4.80;;;8.50;99.90;;;;;;6068872;23;20232;-81
2024/01/04 10:40:30;;;;;;;6.53;5.70;;;8.60;99.90;;;;;;6034726;23;20168;-83
2024/01/04 10:43:02;;;;;;;5.53;4.73;;;8.50;99.90;;;;;;6057442;23;20251;-82
2024/01/04 10:45:31;;;;;;;6.13;5.37;;;8.50;99.90;;;;;;6055166;23;20212;-82
2024/01/04 10:48:00;;;;;;;6.27;5.67;;;8.50;99.90;;;;;;6071928;23;20963;-80
2024/01/04 10:50:31;;;;;;;5.60;5.07;;;8.50;99.90;;;;;;6071796;23;20604;-82
2024/01/04 10:53:04;;;;;;;6.77;5.77;;;8.50;99.90;;;;;;6079593;23;21023;-81
2024/01/04 10:55:33;;;;;;;6.57;5.63;;;8.50;99.90;;;;;;6098842;23;20651;-82
2024/01/04 10:58:04;;;;;;;9.53;6.17;;;8.40;99.90;;;;;;6095615;23;21401;-82
2024/01/04 11:00:33;;;;;;;7.40;6.63;;;8.50;99.90;;;;;;6078502;23;20174;-80
2024/01/04 11:03:06;;;;;;;7.63;6.83;;;8.40;99.90;;;;;;6099076;23;21259;-80
2024/01/04 11:05:35;;;;;;;8.60;7.70;;;8.40;99.90;;;;;;6105974;23;20580;-83
2024/01/04 11:08:07;;;;;;;10.03;8.07;;;8.40;99.90;;;;;;6088761;23;20207;-79
2024/01/04 11:10:35;;;;;;;8.33;7.50;;;8.40;99.90;;;;;;6088910;23;20462;-81
2024/01/04 11:13:04;;;;;;;8.33;7.47;;;8.40;99.90;;;;;;6096429;23;20168;-79
2024/01/04 11:15:33;;;;;;;10.03;7.97;;;8.30;99.90;;;;;;6097940;23;20365;-81
2024/01/04 11:18:17;;;;;;;9.27;8.20;;;8.40;99.90;;;;;;6111469;23;20407;-78
2024/01/04 11:20:58;;;;;;;10.73;7.97;;;8.40;99.90;;;;;;6102086;23;20817;-78
2024/01/04 11:23:49;;;;;;;11.17;8.10;;;8.30;99.90;;;;;;6101340;23;20171;-78
2024/01/04 11:26:24;;;;;;;10.17;8.90;;;8.20;99.90;;;;;;6105285;23;20176;-79
2024/01/04 11:28:57;;;;;;;10.40;8.60;;;8.40;99.90;;;;;;6101863;23;20277;-81
2024/01/04 11:31:26;;;;;;;10.00;8.80;;;8.50;99.90;;;;;;6085097;23;21339;-80
2024/01/04 11:33:55;;;;;;;9.43;7.93;;;8.50;99.90;;;;;;6114734;23;20172;-82
2024/01/04 11:36:24;;;;;;;9.57;8.37;;;8.60;99.90;;;;;;6114514;23;20716;-78
2024/01/04 11:38:57;;;;;;;10.70;8.53;;;8.70;99.90;;;;;;6114110;23;20160;-80
2024/01/04 11:41:32;;;;;;;10.73;8.40;;;8.70;99.90;;;;;;6093188;23;20167;-80
2024/01/04 11:44:02;;;;;;;11.10;8.07;;;8.70;99.90;;;;;;6099563;23;20337;-79
2024/01/04 11:46:30;;;;;;;9.33;8.40;;;8.70;99.90;;;;;;6084280;23;20253;-81
2024/01/04 11:49:01;;;;;;;9.10;7.70;;;8.70;99.90;;;;;;6096066;23;20413;-81
2024/01/04 11:51:44;;;;;;;9.70;8.60;;;8.70;99.90;;;;;;6096900;23;20213;-81
2024/01/04 11:54:24;;;;;;;9.60;8.60;;;8.70;99.90;;;;;;6099962;23;20609;-81
2024/01/04 11:56:53;;;;;;;9.43;8.43;;;8.70;99.90;;;;;;6098414;23;20305;-78
2024/01/04 11:59:32;;;;;;;10.80;9.63;;;8.70;99.90;;;;;;6052470;23;21118;-78
2024/01/04 12:02:01;;;;;;;12.00;9.70;;;8.80;99.90;;;;;;6096088;23;20542;-79
2024/01/04 12:04:31;;;;;;;10.43;9.00;;;8.60;99.90;;;;;;6094316;23;20665;-81
2024/01/04 12:07:04;;;;;;;11.90;9.00;;;8.80;99.90;;;;;;6104571;23;20195;-80
2024/01/04 12:09:35;;;;;;;10.90;9.30;;;8.80;99.90;;;;;;6098543;23;21227;-80
2024/01/04 12:12:05;;;;;;;9.27;8.37;;;8.80;99.90;;;;;;6092520;23;20238;-76
2024/01/04 12:14:38;;;;;;;9.47;8.47;;;8.80;99.90;;;;;;6097526;23;21148;-79
2024/01/04 12:17:07;;;;;;;8.53;7.00;;;8.90;99.90;;;;;;6096395;23;20612;-80
2024/01/04 12:19:37;;;;;;;7.90;7.00;;;8.80;99.90;;;;;;6094517;23;20588;-80
2024/01/04 12:22:06;;;;;;;7.47;6.63;;;8.80;99.90;;;;;;6101331;23;20163;-78
2024/01/04 12:24:38;;;;;;;8.43;7.27;;;8.70;99.90;;;;;;6079484;23;20383;-80
2024/01/04 12:27:07;;;;;;;9.20;7.40;;;8.60;99.90;;;;;;6079333;23;20342;-78
2024/01/04 12:29:36;;;;;;;7.63;6.93;;;8.50;99.90;;;;;;6061752;23;20589;-79
2024/01/04 12:32:05;;;;;;;8.87;6.83;;;8.40;99.90;;;;;;6072025;23;20369;-80
2024/01/04 12:34:45;;;;;;;7.60;6.13;;;8.40;99.90;;;;;;6072343;23;20419;-81
2024/01/04 12:37:19;;;;;;;7.37;6.67;;;8.30;99.90;;;;;;6081092;23;20271;-79
2024/01/04 12:39:52;;;;;;;7.33;6.23;;;8.30;99.90;;;;;;6056450;23;20672;-79
2024/01/04 12:42:22;;;;;;;7.90;7.10;;;8.20;99.90;;;;;;6105071;23;20273;-79
2024/01/04 12:44:51;;;;;;;9.30;7.03;;;8.20;99.90;;;;;;6104643;23;20669;-80
2024/01/04 12:47:22;;;;;;;8.07;7.27;;;8.40;99.90;;;;;;6084656;23;20211;-80
2024/01/04 12:49:55;;;;;;;10.50;7.60;;;8.20;99.90;;;;;;6101483;23;20298;-79
2024/01/04 12:52:25;;;;;;;10.23;7.47;;;8.10;99.90;;;;;;6115528;23;20186;-81
2024/01/04 12:54:56;;;;;;;9.03;7.47;;;8.30;99.90;;;;;;6131522;23;20525;-79
2024/01/04 12:57:24;;;;;;;9.47;8.20;;;8.30;99.90;;;;;;6109197;23;20195;-81
2024/01/04 12:59:53;;;;;;;11.07;8.10;;;8.30;99.90;;;;;;6099032;23;20202;-79
2024/01/04 13:02:21;;;;;;;12.03;8.23;;;8.30;99.90;;;;;;6125225;23;20172;-79
2024/01/04 13:04:50;;;;;;;9.57;8.20;;;8.30;99.90;;;;;;6110309;23;20190;-81
2024/01/04 13:07:19;;;;;;;12.10;8.30;;;8.30;99.90;;;;;;6102643;23;20917;-78
2024/01/04 13:09:48;;;;;;;9.30;8.40;;;8.40;99.90;;;;;;6103415;23;20293;-78